Aeroporto :
LOGIN :

Iscrizione | Disclaimer

   EN    FR    IT 

 










Sommario :    VFR   VFR Marginale   IFR   IFR Intensivo   IFR Molto Intensivo
Visibilità : 
Base nubi : 
>= 8 km
>= 3000ft
5 / 8 km
1000 / 3000 ft
1500m / 5 km
500 / 1000 ft
800 / 1500m
200 / 500 ft
< 800m
< 200 ft
Simboli :   Temporali  Nebbia  Neve Forte  Precipitazioni Forti  Vento > 20 kt
SIGMETs :   Varie  Temporali  Ghiacco  Turbolenza  Onda orograficha  Ceneri Vulcaniche






- Altitudine del aeroporto : 157 ft
- Codice IATA : SXF


EDDB - Berlin Schönefeld

ULTIMO METAR :
  • 272320Z 32004KT CAVOK 03/M00 Q1002 NOSIG

METARs OBSOLETI :
  • 272250Z 32004KT CAVOK 03/M01 Q1001 NOSIG
  • 272220Z 33009KT 9999 -RA SCT047 03/M00 Q1001 NOSIG
  • 272150Z 35005KT 9999 -RA BKN042 03/01 Q1000 NOSIG
  • 272120Z 35004KT 9999 BKN037 02/01 Q1000 NOSIG
  • 272050Z 02003KT 9999 BKN030 02/01 Q0999 NOSIG

TAF TAF EDDB
Valido dal 28 a 00 ore il 29 a 00 ore UTC


272300Z 2800/2824 VRB03KT 9999 SCT030
BECMG 2801/2804 28007KT
TEMPO 2804/2809 2500 -SNRA BKN008
BECMG 2808/2811 27015G25KT
BECMG 2815/2818 21008KT



MetMap, La meteo Aeronautica in un colpo d'occhio ! - Copyright ORBIFLY Dicembre 2007 - Disclaimer

ORBIFLY MET'MAP TEAM :

Programmazione e sviluppo : Alexandra Zaïnal
Concezione : Baudouin d'Aumeries
Aiuto per la programmazione : Marc-Olivier Méhu
Supporto tecnico e logistico : Manuel Goepfert
Aiuto per la traduzione : Arnaldo La Scala

Contatto : metmap@orbifly.com




FONTI E CREDITI :

   NOAA